Time;durP1;ratioP1;P1;durP2;ratioP2;P2;SDS_P1;SDS_P2;PMS_P1;PMS_P2;Temp;Humidity;BMP_temperature;BMP_pressure;BME280_temperature;BME280_humidity;BME280_pressure;Samples;Min_cycle;Max_cycle;Signal;HPM_P1;HPM_P2
2024/03/29 00:01:33;;;;;;;2.00;1.90;;;;;;;9.76;65.38;98186.13;217397;1260;140434;-73
2024/03/29 00:06:37;;;;;;;6.60;2.10;;;;;;;9.73;65.55;98194.85;217604;1260;139908;-72
2024/03/29 00:11:41;;;;;;;3.00;2.00;;;;;;;9.68;65.69;98209.05;217870;1260;139925;-72
2024/03/29 00:16:44;;;;;;;2.10;1.90;;;;;;;9.67;65.70;98213.73;217365;1260;140573;-72
2024/03/29 00:21:47;;;;;;;1.60;1.50;;;;;;;9.65;65.76;98226.08;217464;1260;140916;-70
2024/03/29 00:26:51;;;;;;;2.30;1.70;;;;;;;9.62;65.47;98237.20;217435;1260;139467;-69
2024/03/29 00:31:54;;;;;;;3.70;1.90;;;;;;;9.60;65.38;98240.70;217624;1257;234023;-72
2024/03/29 00:37:00;;;;;;;4.10;2.40;;;;;;;9.55;65.38;98250.16;217523;1257;139844;-74
2024/03/29 00:42:08;;;;;;;2.50;2.10;;;;;;;9.53;65.31;98257.61;219112;1259;140552;-71
2024/03/29 00:47:11;;;;;;;5.70;1.80;;;;;;;9.53;65.12;98268.73;219677;1257;139995;-71
2024/03/29 00:52:14;;;;;;;3.50;2.00;;;;;;;9.52;64.97;98278.13;217448;1257;140890;-71
2024/03/29 00:57:17;;;;;;;5.00;1.80;;;;;;;9.50;64.97;98288.40;218622;1258;139895;-71
2024/03/29 01:02:21;;;;;;;2.40;1.50;;;;;;;9.46;64.79;98305.21;217506;1257;139757;-72
2024/03/29 01:07:24;;;;;;;2.50;1.70;;;;;;;9.40;64.47;98323.98;217498;1257;140214;-73
2024/03/29 01:12:27;;;;;;;1.50;1.40;;;;;;;9.34;64.47;98334.48;217883;1257;140308;-71
2024/03/29 01:17:30;;;;;;;4.00;1.70;;;;;;;9.28;64.38;98340.31;217586;1257;140835;-72
2024/03/29 01:22:33;;;;;;;2.90;1.50;;;;;;;9.22;64.28;98355.64;217215;1257;139652;-73
2024/03/29 01:27:35;;;;;;;3.10;2.10;;;;;;;9.17;64.28;98368.92;217720;1256;140696;-73
2024/03/29 01:32:38;;;;;;;2.00;1.60;;;;;;;9.12;64.53;98389.42;217269;1257;140904;-72
2024/03/29 01:37:40;;;;;;;6.80;2.20;;;;;;;9.05;64.54;98401.52;217047;1257;139606;-71
2024/03/29 01:42:43;;;;;;;4.40;2.30;;;;;;;8.99;64.80;98415.92;217867;1258;140487;-70
2024/03/29 01:47:46;;;;;;;2.30;1.80;;;;;;;8.91;64.78;98432.66;217369;1257;139766;-71
2024/03/29 01:52:50;;;;;;;3.80;2.30;;;;;;;8.82;64.84;98447.98;217319;1262;140524;-72
2024/03/29 01:57:54;;;;;;;3.20;1.70;;;;;;;8.72;65.23;98456.60;217304;1262;140610;-73
2024/03/29 02:02:57;;;;;;;2.50;1.80;;;;;;;8.61;65.31;98468.98;217560;1257;139653;-71
2024/03/29 02:08:00;;;;;;;2.40;2.20;;;;;;;8.50;65.39;98482.23;217294;1261;140105;-73
2024/03/29 02:13:04;;;;;;;4.30;2.20;;;;;;;8.38;65.54;98489.77;217335;1257;139630;-72
2024/03/29 02:18:08;;;;;;;3.40;2.10;;;;;;;8.32;65.99;98490.95;217491;1258;139638;-73
2024/03/29 02:23:14;;;;;;;2.80;1.30;;;;;;;8.23;65.99;98500.26;217986;1261;141228;-71
2024/03/29 02:28:18;;;;;;;1.80;1.60;;;;;;;8.15;66.09;98521.99;217938;1259;139548;-69
2024/03/29 02:33:21;;;;;;;2.70;1.40;;;;;;;8.06;66.10;98532.50;218081;1260;142201;-71
2024/03/29 02:38:24;;;;;;;2.40;1.60;;;;;;;7.98;66.32;98534.90;217855;1259;139683;-70
2024/03/29 02:43:28;;;;;;;2.80;2.60;;;;;;;7.90;66.51;98541.06;217389;1260;139837;-72
2024/03/29 02:48:31;;;;;;;1.60;1.30;;;;;;;7.82;66.78;98551.30;218047;1257;139894;-73
2024/03/29 02:53:34;;;;;;;1.90;1.20;;;;;;;7.75;66.28;98560.86;218554;1257;139574;-70
2024/03/29 02:58:38;;;;;;;4.50;1.70;;;;;;;7.67;66.40;98556.25;217413;1260;139501;-71
2024/03/29 03:03:41;;;;;;;3.20;2.10;;;;;;;7.60;66.81;98559.13;217562;1260;139497;-70
2024/03/29 03:14:25;;;;;;;2.90;1.40;;;;;;;7.44;67.17;98552.84;217629;1256;140206;-70
2024/03/29 03:19:28;;;;;;;1.70;1.60;;;;;;;7.36;67.26;98555.48;217354;1256;140629;-72
2024/03/29 03:24:31;;;;;;;1.60;1.50;;;;;;;7.29;67.15;98562.19;217405;1257;139966;-70
2024/03/29 03:29:34;;;;;;;2.40;1.50;;;;;;;7.22;67.51;98576.27;217568;1256;138876;-70
2024/03/29 03:34:37;;;;;;;1.70;1.00;;;;;;;7.15;67.88;98589.77;217132;1257;139702;-72
2024/03/29 03:39:40;;;;;;;1.40;1.30;;;;;;;7.08;67.95;98600.83;217491;1257;139653;-71
2024/03/29 03:44:44;;;;;;;1.70;1.60;;;;;;;7.01;67.90;98598.30;217711;1257;141597;-72
2024/03/29 03:49:46;;;;;;;1.30;0.90;;;;;;;6.92;68.14;98607.37;217711;1256;140252;-69
2024/03/29 03:54:50;;;;;;;3.00;2.10;;;;;;;6.84;68.39;98614.60;217254;1257;140021;-70
2024/03/29 03:59:53;;;;;;;1.60;1.50;;;;;;;6.77;68.07;98620.94;217984;1256;140203;-71
2024/03/29 04:04:57;;;;;;;2.20;1.50;;;;;;;6.68;68.63;98625.27;218612;1256;139393;-71
2024/03/29 04:10:00;;;;;;;4.20;2.30;;;;;;;6.60;68.72;98633.77;218855;1256;139565;-71
2024/03/29 04:15:04;;;;;;;3.00;1.50;;;;;;;6.56;68.64;98628.45;217772;1257;139558;-71
2024/03/29 04:20:07;;;;;;;2.40;1.70;;;;;;;6.51;68.60;98633.96;220304;1256;139273;-71
2024/03/29 04:25:11;;;;;;;4.90;2.60;;;;;;;6.47;69.11;98633.40;219930;1256;140841;-71
2024/03/29 04:30:14;;;;;;;3.20;2.80;;;;;;;6.47;69.48;98636.73;218001;1256;140980;-71
2024/03/29 04:35:17;;;;;;;7.20;2.60;;;;;;;6.46;69.62;98636.45;220349;1256;141256;-71
2024/03/29 04:40:20;;;;;;;2.20;2.10;;;;;;;6.45;69.76;98637.21;220095;1257;141492;-71
2024/03/29 04:45:22;;;;;;;4.90;2.80;;;;;;;6.42;69.73;98646.92;217366;1257;140634;-71
2024/03/29 04:50:25;;;;;;;6.70;2.80;;;;;;;6.44;70.18;98655.42;218356;1256;141076;-71
2024/03/29 04:55:28;;;;;;;3.00;2.10;;;;;;;6.45;70.53;98652.11;217349;1257;143387;-71
2024/03/29 05:00:31;;;;;;;2.50;2.10;;;;;;;6.45;70.74;98655.75;217436;1259;141603;-71
2024/03/29 05:05:35;;;;;;;3.30;2.80;;;;;;;6.48;70.90;98661.92;217387;1257;139875;-71
2024/03/29 05:10:40;;;;;;;2.10;2.00;;;;;;;6.52;71.05;98662.90;218104;1257;140297;-71
2024/03/29 05:15:44;;;;;;;4.50;2.60;;;;;;;6.57;71.17;98669.31;218220;1260;140589;-71
2024/03/29 05:20:51;;;;;;;4.90;3.00;;;;;;;6.63;71.16;98665.94;217392;1256;140464;-71
2024/03/29 05:25:54;;;;;;;4.30;3.30;;;;;;;6.70;71.35;98672.65;217227;1260;141149;-71
2024/03/29 05:31:14;;;;;;;3.70;3.30;;;;;;;6.76;71.41;98673.36;217484;1257;139988;-71
2024/03/29 05:36:18;;;;;;;5.30;3.70;;;;;;;6.83;71.55;98688.66;217561;1258;139865;-71
2024/03/29 05:41:23;;;;;;;3.00;2.80;;;;;;;6.91;71.57;98705.46;217491;1257;139398;-71
2024/03/29 05:46:26;;;;;;;4.00;3.10;;;;;;;6.98;71.61;98719.95;218276;1260;141214;-71
2024/03/29 05:51:45;;;;;;;2.80;2.60;;;;;;;7.07;71.68;98728.70;217900;1260;140209;-70
2024/03/29 05:56:48;;;;;;;6.10;5.50;;;;;;;7.17;71.93;98735.40;217352;1260;141132;-71
2024/03/29 06:01:51;;;;;;;3.50;3.30;;;;;;;7.26;72.07;98747.84;217555;1257;234939;-69
2024/03/29 06:06:54;;;;;;;4.40;4.00;;;;;;;7.37;71.82;98748.50;219501;1256;139687;-70
2024/03/29 06:11:59;;;;;;;4.10;3.50;;;;;;;7.47;71.83;98737.50;217540;1257;140468;-71
2024/03/29 06:22:24;;;;;;;3.70;3.40;;;;;;;7.71;71.78;98734.34;219715;1256;140271;-71
2024/03/29 06:27:28;;;;;;;3.90;3.20;;;;;;;7.84;71.62;98735.51;220280;1256;139256;-72
2024/03/29 06:32:31;;;;;;;3.50;3.20;;;;;;;7.99;71.49;98739.94;219737;1256;140293;-71
2024/03/29 06:37:34;;;;;;;4.00;3.60;;;;;;;8.15;71.55;98737.73;218515;1257;140505;-71
2024/03/29 06:42:38;;;;;;;4.20;2.80;;;;;;;8.31;71.52;98744.41;217473;1256;140963;-71
2024/03/29 06:47:41;;;;;;;2.90;2.60;;;;;;;8.46;71.28;98740.81;218662;1259;140831;-72
2024/03/29 06:52:45;;;;;;;3.20;2.80;;;;;;;8.64;70.99;98739.77;217702;1257;140834;-71
2024/03/29 06:57:48;;;;;;;4.00;3.10;;;;;;;8.94;70.78;98742.17;217534;1257;140516;-71
2024/03/29 07:02:51;;;;;;;3.00;1.90;;;;;;;9.54;70.16;98747.63;217976;1258;141348;-73
2024/03/29 07:07:55;;;;;;;2.50;1.70;;;;;;;10.30;69.60;98751.66;217470;1256;140254;-72
2024/03/29 07:12:59;;;;;;;2.30;2.10;;;;;;;11.36;69.06;98752.71;217375;1256;139841;-72
2024/03/29 07:18:03;;;;;;;2.30;2.10;;;;;;;12.82;67.65;98751.30;217996;1257;140405;-72
2024/03/29 07:23:06;;;;;;;2.90;1.50;;;;;;;14.47;66.24;98753.14;217437;1256;139271;-73
2024/03/29 07:28:08;;;;;;;3.10;2.80;;;;;;;16.02;64.30;98750.42;217641;1257;139024;-73
2024/03/29 07:33:15;;;;;;;2.00;1.60;;;;;;;17.26;62.69;98748.89;217727;1257;140740;-73
2024/03/29 07:38:20;;;;;;;3.10;2.10;;;;;;;18.13;61.00;98740.52;217477;1257;140668;-72
2024/03/29 07:43:23;;;;;;;2.40;2.10;;;;;;;18.49;59.47;98743.37;217378;1257;139283;-73
2024/03/29 07:48:25;;;;;;;1.60;1.50;;;;;;;18.58;58.01;98751.52;218291;1257;140480;-73
2024/03/29 07:53:28;;;;;;;2.20;1.90;;;;;;;18.59;56.55;98762.46;217757;1256;140288;-73
2024/03/29 07:58:32;;;;;;;2.30;1.50;;;;;;;18.60;55.42;98765.61;218018;1257;139576;-73
2024/03/29 08:03:36;;;;;;;2.30;1.80;;;;;;;18.54;55.16;98768.08;217575;1257;139228;-72
2024/03/29 08:08:40;;;;;;;1.90;1.50;;;;;;;18.58;55.11;98776.67;217518;1257;139760;-71
2024/03/29 08:13:48;;;;;;;3.00;1.60;;;;;;;18.49;54.53;98799.60;218072;1256;138923;-73
2024/03/29 08:18:51;;;;;;;1.40;1.30;;;;;;;18.32;54.10;98804.58;217612;1256;140547;-76
2024/03/29 08:23:54;;;;;;;3.80;1.70;;;;;;;18.01;53.28;98806.04;218136;1256;139014;-75
2024/03/29 08:28:57;;;;;;;5.40;1.60;;;;;;;17.80;53.16;98801.11;220270;1256;140220;-74
2024/03/29 08:34:00;;;;;;;1.20;1.10;;;;;;;17.65;52.82;98802.16;217569;1256;138628;-74
2024/03/29 08:39:03;;;;;;;2.20;1.30;;;;;;;17.65;53.21;98798.60;217510;1260;139546;-73
2024/03/29 08:44:05;;;;;;;1.70;1.00;;;;;;;17.79;52.96;98801.23;218085;1260;139590;-74
2024/03/29 08:49:07;;;;;;;1.10;1.00;;;;;;;17.64;52.21;98812.63;217974;1260;140025;-74
2024/03/29 08:54:09;;;;;;;1.10;1.00;;;;;;;17.60;52.35;98819.81;218012;1260;141092;-74
2024/03/29 08:59:14;;;;;;;2.20;1.20;;;;;;;17.69;52.22;98823.95;217462;1256;140289;-74
2024/03/29 09:04:16;;;;;;;2.00;1.00;;;;;;;17.79;52.19;98827.23;217823;1257;138573;-74
2024/03/29 09:09:18;;;;;;;2.60;1.30;;;;;;;17.86;51.66;98823.52;217437;1260;139563;-74
2024/03/29 09:14:21;;;;;;;2.10;1.00;;;;;;;17.88;51.51;98818.30;217229;1257;140172;-74
2024/03/29 09:19:24;;;;;;;1.60;1.20;;;;;;;17.78;50.91;98819.40;217578;1256;139493;-74
2024/03/29 09:24:27;;;;;;;1.60;1.10;;;;;;;17.66;50.73;98836.54;217534;1260;205560;-74
2024/03/29 09:29:30;;;;;;;0.80;0.80;;;;;;;17.71;50.66;98839.98;217477;1257;140380;-74
2024/03/29 09:34:33;;;;;;;1.30;0.90;;;;;;;17.73;50.55;98846.57;217789;1256;139439;-74
2024/03/29 09:39:37;;;;;;;4.70;1.10;;;;;;;17.85;50.65;98842.96;217439;1260;139482;-74
2024/03/29 09:44:39;;;;;;;1.20;1.00;;;;;;;17.90;50.46;98837.83;218230;1256;140583;-74
2024/03/29 09:49:44;;;;;;;0.90;0.80;;;;;;;17.82;49.50;98826.73;217370;1257;139169;-74
2024/03/29 09:54:46;;;;;;;1.20;0.80;;;;;;;17.73;49.55;98831.64;218091;1257;139844;-74
2024/03/29 09:59:50;;;;;;;3.60;1.00;;;;;;;17.82;49.25;98845.05;217608;1260;139136;-74
2024/03/29 10:04:56;;;;;;;3.10;1.40;;;;;;;17.79;48.86;98851.15;220266;1256;139193;-75
2024/03/29 10:10:00;;;;;;;2.40;1.10;;;;;;;17.77;48.81;98849.69;218273;1257;139432;-74
2024/03/29 10:15:18;;;;;;;1.80;1.00;;;;;;;17.87;48.69;98843.45;219086;1256;139095;-75
2024/03/29 10:20:23;;;;;;;2.50;1.60;;;;;;;17.97;48.37;98847.07;218820;1256;140179;-75
2024/03/29 10:25:26;;;;;;;0.60;0.40;;;;;;;17.96;47.95;98856.89;218299;1257;141090;-74
2024/03/29 10:30:29;;;;;;;2.40;0.70;;;;;;;17.97;47.31;98848.75;217840;1257;140426;-75
2024/03/29 10:35:33;;;;;;;0.60;0.60;;;;;;;17.96;47.19;98840.49;218321;1257;139533;-74
2024/03/29 10:40:40;;;;;;;2.40;0.80;;;;;;;17.84;46.25;98820.38;217418;1256;139424;-74
2024/03/29 10:45:44;;;;;;;2.40;0.50;;;;;;;17.82;46.04;98827.48;217065;1257;668750;-74
2024/03/29 10:50:50;;;;;;;2.80;1.00;;;;;;;17.90;45.82;98822.67;217440;1259;140077;-73
2024/03/29 10:56:00;;;;;;;5.20;0.80;;;;;;;17.99;45.93;98809.20;218176;1257;139608;-74
2024/03/29 11:01:05;;;;;;;3.60;0.70;;;;;;;18.24;46.21;98797.04;217499;1256;139846;-74
2024/03/29 11:06:12;;;;;;;1.70;0.80;;;;;;;18.37;45.60;98800.23;217501;1259;138999;-74
2024/03/29 11:11:16;;;;;;;2.80;0.40;;;;;;;18.53;45.41;98794.70;217567;1259;140109;-74
2024/03/29 11:16:21;;;;;;;1.00;0.70;;;;;;;18.55;45.03;98801.51;217813;1259;138779;-75
2024/03/29 11:21:28;;;;;;;2.00;0.60;;;;;;;18.54;44.30;98808.48;217662;1256;140089;-74
2024/03/29 11:26:30;;;;;;;2.90;1.00;;;;;;;18.39;43.97;98805.25;218442;1257;140155;-74
2024/03/29 11:31:38;;;;;;;1.60;0.80;;;;;;;18.36;44.01;98788.50;218039;1257;139679;-73
2024/03/29 11:36:41;;;;;;;2.50;0.40;;;;;;;18.27;43.22;98791.00;217578;1260;140864;-74
2024/03/29 11:41:47;;;;;;;5.20;1.00;;;;;;;18.18;43.25;98777.67;217959;1261;140102;-75
2024/03/29 11:46:50;;;;;;;1.20;0.50;;;;;;;18.26;43.63;98770.52;217405;1257;140137;-74
2024/03/29 11:52:04;;;;;;;1.70;0.80;;;;;;;18.35;43.28;98764.56;219158;1257;139673;-74
2024/03/29 11:57:07;;;;;;;0.40;0.30;;;;;;;18.41;42.96;98770.23;217496;1260;139003;-74
2024/03/29 12:02:13;;;;;;;0.60;0.50;;;;;;;18.40;42.59;98770.69;217719;1260;140099;-74
2024/03/29 12:07:16;;;;;;;0.40;0.30;;;;;;;18.36;42.25;98784.91;218060;1257;139208;-74
2024/03/29 12:12:20;;;;;;;1.90;0.40;;;;;;;18.45;41.73;98794.36;218867;1257;140375;-75
2024/03/29 12:17:23;;;;;;;0.50;0.30;;;;;;;18.52;41.47;98804.75;218787;1258;248479;-74
2024/03/29 12:22:26;;;;;;;1.80;0.60;;;;;;;18.43;41.52;98809.20;218381;1256;138900;-74
2024/03/29 12:27:31;;;;;;;0.50;0.50;;;;;;;18.37;41.61;98805.05;217577;1257;140354;-74
2024/03/29 12:32:34;;;;;;;0.90;0.50;;;;;;;18.50;41.92;98808.59;217916;1257;139302;-75
2024/03/29 12:37:38;;;;;;;0.40;0.30;;;;;;;18.48;42.00;98809.82;217737;1257;139769;-74
2024/03/29 12:42:41;;;;;;;0.20;0.20;;;;;;;18.27;41.46;98807.02;217657;1261;139493;-74
2024/03/29 12:47:48;;;;;;;8.80;1.10;;;;;;;18.00;41.25;98806.06;217699;1257;141076;-74
2024/03/29 12:52:55;;;;;;;1.30;0.60;;;;;;;18.06;41.77;98808.82;217963;1257;139681;-73
2024/03/29 12:58:00;;;;;;;0.30;0.30;;;;;;;18.18;41.74;98815.34;217456;1257;139990;-74
2024/03/29 13:03:03;;;;;;;1.60;0.50;;;;;;;18.02;41.15;98814.46;217455;1256;140318;-74
2024/03/29 13:08:10;;;;;;;2.90;0.70;;;;;;;17.90;41.28;98814.59;217443;1257;139860;-74
2024/03/29 13:13:13;;;;;;;4.40;0.90;;;;;;;17.91;41.19;98820.40;217570;1257;139339;-74
2024/03/29 13:18:18;;;;;;;0.60;0.50;;;;;;;17.98;41.47;98812.85;217718;1257;140111;-74
2024/03/29 13:23:21;;;;;;;1.40;0.50;;;;;;;18.10;41.73;98811.52;217500;1261;138908;-74
2024/03/29 13:28:24;;;;;;;2.60;0.50;;;;;;;18.17;41.60;98808.29;217566;1260;139042;-74
2024/03/29 13:33:27;;;;;;;3.00;0.80;;;;;;;18.20;41.57;98806.65;217343;1257;139664;-73
2024/03/29 13:38:30;;;;;;;0.60;0.50;;;;;;;17.98;41.03;98796.18;218289;1256;139362;-73
2024/03/29 13:43:38;;;;;;;0.80;0.70;;;;;;;17.80;41.39;98805.33;217824;1257;138653;-74
2024/03/29 13:48:42;;;;;;;2.60;0.60;;;;;;;17.83;41.84;98804.66;217778;1257;141174;-73
2024/03/29 13:53:45;;;;;;;1.80;0.70;;;;;;;17.93;41.95;98805.83;218490;1259;140945;-73
2024/03/29 13:58:48;;;;;;;1.10;0.60;;;;;;;17.90;41.94;98802.56;217945;1257;139516;-73
2024/03/29 14:03:52;;;;;;;0.60;0.40;;;;;;;17.85;41.74;98802.14;217653;1257;139413;-73
2024/03/29 14:08:56;;;;;;;0.60;0.60;;;;;;;17.80;41.81;98792.59;218395;1256;138778;-73
2024/03/29 14:13:58;;;;;;;1.10;0.30;;;;;;;17.76;41.79;98792.14;218220;1257;139041;-73
2024/03/29 14:19:01;;;;;;;1.40;0.50;;;;;;;17.68;41.81;98780.77;217742;1257;219801;-73
2024/03/29 14:24:05;;;;;;;4.60;1.00;;;;;;;17.58;41.60;98779.60;218089;1257;160887;-73
2024/03/29 14:29:08;;;;;;;1.30;0.80;;;;;;;17.51;41.87;98779.20;217649;1257;140905;-72
2024/03/29 14:34:11;;;;;;;0.90;0.50;;;;;;;17.48;41.86;98770.05;217652;1257;139423;-73
2024/03/29 14:39:15;;;;;;;0.80;0.40;;;;;;;17.47;41.93;98769.96;217751;1259;139643;-73
2024/03/29 14:44:20;;;;;;;1.70;0.60;;;;;;;17.50;42.12;98764.77;217789;1257;139039;-72
2024/03/29 14:49:23;;;;;;;0.30;0.30;;;;;;;17.45;42.10;98768.89;218194;1257;139189;-70
2024/03/29 14:54:26;;;;;;;1.30;0.50;;;;;;;17.41;42.32;98767.05;218203;1256;139142;-72
2024/03/29 14:59:30;;;;;;;3.20;0.60;;;;;;;17.30;42.18;98766.42;217878;1259;139329;-73
2024/03/29 15:04:32;;;;;;;1.30;0.90;;;;;;;17.13;42.14;98766.77;217922;1256;138920;-72
2024/03/29 15:09:35;;;;;;;1.10;0.60;;;;;;;16.99;42.20;98759.36;217570;1259;140249;-72
2024/03/29 15:14:37;;;;;;;0.60;0.50;;;;;;;16.93;42.38;98746.66;217647;1259;140456;-71
2024/03/29 15:19:41;;;;;;;1.10;0.50;;;;;;;16.83;42.40;98740.40;217776;1258;139939;-73
2024/03/29 15:24:43;;;;;;;1.60;0.90;;;;;;;16.77;42.48;98732.84;217642;1256;139737;-72
2024/03/29 15:30:17;;;;;;;0.70;0.70;;;;;;;16.69;42.62;98734.08;218205;1260;139587;-75
2024/03/29 15:35:22;;;;;;;1.90;0.80;;;;;;;16.65;42.92;98736.82;218221;1258;139629;-73
2024/03/29 15:40:24;;;;;;;2.50;1.30;;;;;;;16.54;42.83;98737.43;217912;1262;140257;-74
2024/03/29 15:45:27;;;;;;;1.90;0.70;;;;;;;16.43;43.11;98724.47;218142;1260;139817;-76
2024/03/29 15:50:30;;;;;;;1.20;0.70;;;;;;;16.40;43.29;98718.18;218374;1260;140374;-74
2024/03/29 15:55:34;;;;;;;2.80;1.20;;;;;;;16.33;43.29;98711.85;218652;1259;139906;-75
2024/03/29 16:47:35;;;;;;;7.30;2.30;;;;;;;15.30;44.60;98705.33;214284;1295;657624;-76
2024/03/29 16:52:40;;;;;;;2.20;1.80;;;;;;;15.08;44.82;98707.13;216016;1273;138661;-72
2024/03/29 16:57:48;;;;;;;5.20;3.00;;;;;;;14.93;45.08;98710.94;215878;1269;292515;-72
2024/03/29 17:02:53;;;;;;;6.30;3.40;;;;;;;14.79;45.43;98706.55;216232;1272;142528;-74
2024/03/29 17:07:59;;;;;;;4.90;1.80;;;;;;;14.60;45.65;98707.69;216201;1273;138354;-70
2024/03/29 17:13:02;;;;;;;3.00;1.80;;;;;;;14.44;46.00;98713.16;216097;1269;138154;-75
2024/03/29 17:18:05;;;;;;;2.70;1.70;;;;;;;14.31;46.26;98713.98;216157;1270;138450;-71
2024/03/29 17:23:07;;;;;;;3.10;2.40;;;;;;;14.17;46.36;98714.00;216578;1269;138184;-71
2024/03/29 17:28:10;;;;;;;6.60;3.10;;;;;;;14.00;46.53;98715.23;216563;1264;138043;-70
2024/03/29 17:33:13;;;;;;;5.40;2.40;;;;;;;13.87;46.79;98715.66;216647;1268;138054;-72
2024/03/29 17:38:15;;;;;;;3.40;2.00;;;;;;;13.75;47.09;98709.98;218323;1263;138431;-74
2024/03/29 17:43:18;;;;;;;2.80;1.80;;;;;;;13.67;47.69;98716.53;218414;1264;139057;-70
2024/03/29 17:48:20;;;;;;;5.00;2.30;;;;;;;13.63;47.89;98716.60;216804;1268;138601;-72
2024/03/29 17:53:22;;;;;;;10.40;4.60;;;;;;;13.61;47.98;98721.48;216803;1264;139767;-70
2024/03/29 17:58:25;;;;;;;10.70;4.70;;;;;;;13.62;48.51;98728.13;216420;1268;153081;-72
2024/03/29 18:03:33;;;;;;;8.20;3.50;;;;;;;13.57;48.34;98736.08;216501;1269;138756;-71
2024/03/29 18:08:36;;;;;;;7.70;3.30;;;;;;;13.49;48.45;98735.00;216448;1267;139276;-70
2024/03/29 18:13:38;;;;;;;14.40;3.10;;;;;;;13.45;48.62;98733.02;216484;1265;138483;-71
2024/03/29 18:18:47;;;;;;;5.90;2.90;;;;;;;13.42;48.95;98732.71;216521;1268;140702;-72
2024/03/29 18:23:50;;;;;;;5.50;2.70;;;;;;;13.39;49.12;98742.16;216430;1270;138278;-72
2024/03/29 18:28:56;;;;;;;6.90;3.30;;;;;;;13.39;49.31;98743.07;216431;1265;139327;-72
2024/03/29 18:33:59;;;;;;;11.00;4.00;;;;;;;13.36;49.52;98742.65;216475;1267;139710;-73
2024/03/29 18:39:02;;;;;;;6.90;4.90;;;;;;;13.33;49.29;98742.61;216564;1267;138712;-72
2024/03/29 18:44:05;;;;;;;8.60;4.40;;;;;;;13.31;49.52;98737.05;216407;1266;138925;-72
2024/03/29 18:49:07;;;;;;;5.10;3.60;;;;;;;13.31;49.55;98725.61;216951;1264;139257;-73
2024/03/29 18:54:10;;;;;;;4.50;2.60;;;;;;;13.31;49.58;98722.70;216684;1267;139348;-73
2024/03/29 18:59:13;;;;;;;9.10;3.50;;;;;;;13.31;49.77;98714.20;216611;1266;138805;-70
2024/03/29 19:04:19;;;;;;;7.40;5.60;;;;;;;13.29;49.90;98708.22;216772;1267;140239;-71
2024/03/29 19:09:22;;;;;;;5.90;3.20;;;;;;;13.30;50.07;98713.98;216646;1264;137738;-74
2024/03/29 19:14:25;;;;;;;5.80;3.40;;;;;;;13.29;50.24;98707.62;216778;1265;139363;-75
2024/03/29 19:19:30;;;;;;;8.20;4.40;;;;;;;13.27;50.33;98703.79;216997;1264;138625;-74
2024/03/29 19:24:33;;;;;;;6.50;4.60;;;;;;;13.26;50.20;98703.36;217185;1266;139235;-74
2024/03/29 19:29:36;;;;;;;8.00;5.00;;;;;;;13.25;50.54;98704.07;217105;1268;139465;-72
2024/03/29 19:34:39;;;;;;;10.00;4.80;;;;;;;13.24;50.87;98704.98;217963;1265;140113;-72
2024/03/29 19:39:42;;;;;;;7.70;3.80;;;;;;;13.22;50.98;98704.83;217870;1264;141107;-71
2024/03/29 19:44:46;;;;;;;5.20;3.20;;;;;;;13.20;51.22;98706.81;217156;1260;139410;-71
2024/03/29 19:49:49;;;;;;;10.70;3.70;;;;;;;13.17;51.49;98706.36;217279;1261;140045;-71
2024/03/29 19:54:52;;;;;;;8.00;3.60;;;;;;;13.11;51.76;98707.23;217153;1260;138085;-71
2024/03/29 19:59:55;;;;;;;6.90;3.90;;;;;;;13.04;51.89;98707.16;217921;1261;140908;-71
2024/03/29 20:04:58;;;;;;;7.40;3.30;;;;;;;13.00;52.15;98711.02;217178;1260;138771;-70
2024/03/29 20:10:05;;;;;;;9.10;3.50;;;;;;;12.93;52.38;98712.44;216950;1261;140050;-69
2024/03/29 20:15:09;;;;;;;9.60;3.40;;;;;;;12.83;52.52;98718.80;217041;1260;140487;-71
2024/03/29 20:20:13;;;;;;;5.10;3.40;;;;;;;12.75;52.60;98722.21;217921;1263;139188;-72
2024/03/29 20:25:19;;;;;;;5.00;2.90;;;;;;;12.63;52.51;98722.67;217088;1263;138449;-71
2024/03/29 20:30:21;;;;;;;5.90;3.70;;;;;;;12.51;52.74;98721.00;217055;1260;138652;-71
2024/03/29 20:35:23;;;;;;;9.90;4.30;;;;;;;12.41;53.21;98720.55;217046;1263;140149;-70
2024/03/29 20:40:26;;;;;;;5.20;3.60;;;;;;;12.32;53.42;98722.42;217145;1259;138325;-71
2024/03/29 20:45:30;;;;;;;7.20;3.70;;;;;;;12.23;53.59;98724.54;218357;1259;138853;-72
2024/03/29 20:50:33;;;;;;;7.70;5.20;;;;;;;12.14;53.96;98722.05;217230;1262;138644;-71
2024/03/29 20:55:35;;;;;;;7.50;3.40;;;;;;;12.05;54.05;98719.70;217338;1260;138360;-71
2024/03/29 21:00:37;;;;;;;13.20;6.40;;;;;;;11.98;54.44;98724.71;217324;1260;139051;-71
2024/03/29 21:05:41;;;;;;;8.30;4.10;;;;;;;11.92;54.53;98719.55;217788;1260;139273;-70
2024/03/29 21:10:58;;;;;;;8.00;5.10;;;;;;;11.84;54.62;98725.44;218394;1262;141174;-71
2024/03/29 21:16:01;;;;;;;;;;;;;;;11.78;55.00;98726.43;218736;1260;139236;-71
2024/03/29 21:21:03;;;;;;;12.00;5.10;;;;;;;11.69;54.99;98727.63;217834;1260;126064;-70
2024/03/29 21:26:07;;;;;;;13.90;4.40;;;;;;;11.62;55.11;98722.50;217503;1259;140451;-70
2024/03/29 21:31:10;;;;;;;8.30;5.40;;;;;;;11.57;55.33;98725.71;217131;1260;140421;-68
2024/03/29 21:36:13;;;;;;;12.90;5.10;;;;;;;11.53;55.46;98720.73;217380;1260;139066;-70
2024/03/29 21:41:15;;;;;;;8.70;4.20;;;;;;;11.50;55.83;98718.50;218120;1261;139472;-70
2024/03/29 21:46:18;;;;;;;7.70;4.50;;;;;;;11.50;55.97;98717.37;217357;1260;139909;-72
2024/03/29 21:51:21;;;;;;;8.10;4.30;;;;;;;11.54;56.63;98721.54;217710;1260;139021;-70
2024/03/29 21:56:24;;;;;;;9.10;5.20;;;;;;;11.57;57.11;98719.20;217126;1262;139006;-72
2024/03/29 22:01:31;;;;;;;11.70;3.80;;;;;;;11.62;57.34;98717.38;217205;1259;139833;-69
2024/03/29 22:06:34;;;;;;;6.50;4.20;;;;;;;11.67;57.89;98719.83;217432;1260;138608;-74
2024/03/29 22:11:37;;;;;;;8.50;3.70;;;;;;;11.70;58.36;98720.80;217119;1261;139358;-72
2024/03/29 22:16:40;;;;;;;6.10;3.40;;;;;;;11.72;58.56;98723.20;217330;1263;139244;-73
2024/03/29 22:21:43;;;;;;;7.40;4.10;;;;;;;11.71;58.96;98728.21;217286;1262;139263;-73
2024/03/29 22:26:45;;;;;;;8.20;3.40;;;;;;;11.68;59.16;98724.31;217483;1260;138767;-71
2024/03/29 22:31:48;;;;;;;8.80;4.50;;;;;;;11.67;59.52;98723.83;217379;1261;138837;-70
2024/03/29 22:36:51;;;;;;;9.40;4.50;;;;;;;11.65;59.83;98718.86;217175;1259;139276;-72
2024/03/29 22:41:55;;;;;;;7.10;4.80;;;;;;;11.61;59.91;98706.02;217193;1260;139616;-71
2024/03/29 22:46:57;;;;;;;4.60;2.90;;;;;;;11.58;60.27;98717.71;217133;1261;138645;-73
2024/03/29 22:52:00;;;;;;;7.50;4.00;;;;;;;11.53;60.53;98725.06;217224;1260;139033;-70
2024/03/29 22:57:03;;;;;;;12.40;7.20;;;;;;;11.52;61.15;98728.42;217440;1263;138636;-72
2024/03/29 23:02:06;;;;;;;12.20;4.30;;;;;;;11.54;61.49;98741.13;217443;1260;138917;-72
2024/03/29 23:07:11;;;;;;;9.50;3.80;;;;;;;11.55;61.68;98745.09;217306;1261;140911;-72
2024/03/29 23:12:14;;;;;;;7.60;3.40;;;;;;;11.55;62.04;98743.38;217205;1260;139302;-72
2024/03/29 23:17:17;;;;;;;6.30;3.70;;;;;;;11.55;62.21;98740.44;217169;1261;139457;-74
2024/03/29 23:22:20;;;;;;;6.90;4.10;;;;;;;11.54;62.55;98741.77;217984;1263;138487;-71
2024/03/29 23:27:24;;;;;;;7.70;3.00;;;;;;;11.54;62.70;98745.93;217134;1263;139472;-71
2024/03/29 23:32:27;;;;;;;8.60;3.70;;;;;;;11.53;62.85;98746.64;217870;1262;139035;-70
2024/03/29 23:37:33;;;;;;;8.40;3.70;;;;;;;11.50;63.41;98743.73;217235;1260;140627;-72
2024/03/29 23:42:35;;;;;;;6.60;3.60;;;;;;;11.47;63.37;98742.55;217293;1260;140405;-73
2024/03/29 23:47:38;;;;;;;8.50;4.20;;;;;;;11.44;63.76;98736.52;217303;1259;139377;-74
2024/03/29 23:52:41;;;;;;;6.30;4.10;;;;;;;11.40;63.89;98731.17;217100;1264;139707;-72
2024/03/29 23:57:45;;;;;;;5.60;3.90;;;;;;;11.36;64.43;98718.84;217347;1263;141224;-73
